createdAt,value
2018-09-04T00:00:32.843Z,40.77
2018-09-04T00:03:01.534Z,36.70
2018-09-04T00:05:30.076Z,34.03
2018-09-04T00:07:58.606Z,37.87
2018-09-04T00:10:27.158Z,48.60
2018-09-04T00:12:55.666Z,36.37
2018-09-04T00:15:24.270Z,33.63
2018-09-04T00:17:54.324Z,37.00
2018-09-04T00:20:22.825Z,41.47
2018-09-04T00:22:51.339Z,40.10
2018-09-04T00:25:19.819Z,38.37
2018-09-04T00:27:49.056Z,41.30
2018-09-04T00:30:18.571Z,38.10
2018-09-04T00:32:47.122Z,42.50
2018-09-04T00:35:15.654Z,37.37
2018-09-04T00:37:44.736Z,32.80
2018-09-04T00:40:13.878Z,36.30
2018-09-04T00:42:42.431Z,42.17
2018-09-04T00:45:11.022Z,38.80
2018-09-04T00:47:39.542Z,44.83
2018-09-04T00:50:08.070Z,36.60
2018-09-04T00:52:36.592Z,36.17
2018-09-04T00:55:05.144Z,47.03
2018-09-04T00:57:33.661Z,36.17
2018-09-04T01:00:02.126Z,37.47
2018-09-04T01:02:31.692Z,40.33
2018-09-04T01:05:00.198Z,47.63
2018-09-04T01:07:28.735Z,38.20
2018-09-04T01:09:57.249Z,37.13
2018-09-04T01:12:25.757Z,49.33
2018-09-04T01:14:57.914Z,46.90
2018-09-04T01:17:26.819Z,38.87
2018-09-04T01:19:55.296Z,35.03
2018-09-04T01:22:23.806Z,44.90
2018-09-04T01:24:52.314Z,39.20
2018-09-04T01:27:20.887Z,48.80
2018-09-04T01:29:49.355Z,42.17
2018-09-04T01:32:20.102Z,42.37
2018-09-04T01:34:48.571Z,42.20
2018-09-04T01:37:17.110Z,44.47
2018-09-04T01:39:45.571Z,45.37
2018-09-04T01:42:14.415Z,45.47
2018-09-04T01:44:43.182Z,44.70
2018-09-04T01:47:11.678Z,44.00
2018-09-04T01:49:40.170Z,61.97
2018-09-04T01:52:08.690Z,44.90
2018-09-04T01:54:37.153Z,43.43
2018-09-04T01:57:05.691Z,47.23
2018-09-04T01:59:34.282Z,45.97
2018-09-04T02:02:02.844Z,57.13
2018-09-04T02:04:31.325Z,49.60
2018-09-04T02:07:00.347Z,49.17
2018-09-04T02:09:28.866Z,42.70
2018-09-04T02:11:57.806Z,46.60
2018-09-04T02:14:26.334Z,46.17
2018-09-04T02:16:54.857Z,46.27
2018-09-04T02:19:23.343Z,46.30
2018-09-04T02:21:51.849Z,48.90
2018-09-04T02:24:20.382Z,43.73
2018-09-04T02:26:49.422Z,42.23
2018-09-04T02:29:18.100Z,46.73
2018-09-04T02:31:46.604Z,46.83
2018-09-04T02:34:15.471Z,47.90
2018-09-04T02:36:44.785Z,46.87
2018-09-04T02:39:13.742Z,47.20
2018-09-04T02:41:42.635Z,47.80
2018-09-04T02:44:11.212Z,48.30
2018-09-04T02:46:39.746Z,47.43
2018-09-04T02:49:08.929Z,47.57
2018-09-04T02:51:37.588Z,43.23
2018-09-04T02:54:06.166Z,50.40
2018-09-04T02:56:34.678Z,48.20
2018-09-04T02:59:03.210Z,47.13
2018-09-04T03:01:31.767Z,50.77
2018-09-04T03:04:00.262Z,49.80
2018-09-04T03:06:28.772Z,46.93
2018-09-04T03:08:57.247Z,59.97
2018-09-04T03:11:25.795Z,52.80
2018-09-04T03:13:54.424Z,49.37
2018-09-04T03:16:22.845Z,46.07
2018-09-04T03:18:51.574Z,53.23
2018-09-04T03:21:20.319Z,54.70
2018-09-04T03:23:48.805Z,56.23
2018-09-04T03:26:17.285Z,50.20
2018-09-04T03:28:45.844Z,47.63
2018-09-04T03:31:14.678Z,48.60
2018-09-04T03:33:43.406Z,48.33
2018-09-04T03:36:12.191Z,50.47
2018-09-04T03:38:40.721Z,55.40
2018-09-04T03:41:09.233Z,50.10
2018-09-04T03:43:37.730Z,58.57
2018-09-04T03:46:06.457Z,57.47
2018-09-04T03:48:35.210Z,55.93
2018-09-04T03:51:03.728Z,52.67
2018-09-04T03:53:32.450Z,52.80
2018-09-04T03:56:01.088Z,52.90
2018-09-04T03:58:29.615Z,50.10
2018-09-04T04:00:58.110Z,52.70
2018-09-04T04:03:26.624Z,55.73
2018-09-04T04:05:55.090Z,52.47
2018-09-04T04:08:23.616Z,56.20
2018-09-04T04:10:52.162Z,54.13
2018-09-04T04:13:20.672Z,48.83
2018-09-04T04:15:49.542Z,51.80
2018-09-04T04:18:18.113Z,52.17
2018-09-04T04:20:53.039Z,53.83
2018-09-04T04:23:21.546Z,52.67
2018-09-04T04:25:50.125Z,54.83
2018-09-04T04:28:18.607Z,63.17
2018-09-04T04:30:47.123Z,56.70
2018-09-04T04:33:15.725Z,59.50
2018-09-04T04:35:44.394Z,52.40
2018-09-04T04:38:12.915Z,58.63
2018-09-04T04:40:41.402Z,53.50
2018-09-04T04:43:10.322Z,58.40
2018-09-04T04:45:39.183Z,50.40
2018-09-04T04:48:07.731Z,59.67
2018-09-04T04:50:36.189Z,55.87
2018-09-04T04:53:04.951Z,56.33
2018-09-04T04:55:33.436Z,56.73
2018-09-04T04:58:02.480Z,61.93
2018-09-04T05:00:31.365Z,61.40
2018-09-04T05:02:59.862Z,50.10
2018-09-04T05:05:28.336Z,59.50
2018-09-04T05:07:56.844Z,53.50
2018-09-04T05:10:25.344Z,50.93
2018-09-04T05:12:53.927Z,52.03
2018-09-04T05:15:22.419Z,83.33
2018-09-04T05:17:50.956Z,48.40
2018-09-04T05:20:23.943Z,63.23
2018-09-04T05:22:52.495Z,60.10
2018-09-04T05:25:21.034Z,53.00
2018-09-04T05:27:49.576Z,56.03
2018-09-04T05:30:18.120Z,51.40
2018-09-04T05:33:01.727Z,49.63
2018-09-04T05:35:40.210Z,57.30
2018-09-04T05:38:08.757Z,53.17
2018-09-04T05:40:37.242Z,51.90
2018-09-04T05:43:07.956Z,49.20
2018-09-04T05:45:37.668Z,54.87
2018-09-04T05:48:09.603Z,49.07
2018-09-04T05:50:38.206Z,48.70
2018-09-04T05:53:07.041Z,56.03
2018-09-04T05:55:35.573Z,57.73
2018-09-04T05:58:04.226Z,52.97
2018-09-04T06:00:35.047Z,51.80
2018-09-04T06:03:03.628Z,61.43
2018-09-04T06:05:32.171Z,55.80
2018-09-04T06:08:00.806Z,51.83
2018-09-04T06:10:29.318Z,49.60
2018-09-04T06:12:58.122Z,54.63
2018-09-04T06:15:26.847Z,51.60
2018-09-04T06:17:55.315Z,58.37
2018-09-04T06:20:23.981Z,54.13
2018-09-04T06:22:52.535Z,48.53
2018-09-04T06:25:21.079Z,55.43
2018-09-04T06:27:49.559Z,50.97
2018-09-04T06:30:18.070Z,53.50
2018-09-04T06:32:46.601Z,53.30
2018-09-04T06:35:15.274Z,51.17
2018-09-04T06:37:43.875Z,51.67
2018-09-04T06:40:12.497Z,50.77
2018-09-04T06:42:41.066Z,48.10
2018-09-04T06:45:09.565Z,51.27
2018-09-04T06:47:38.121Z,63.87
2018-09-04T06:50:06.877Z,54.40
2018-09-04T06:52:35.395Z,49.03
2018-09-04T06:55:03.907Z,49.17
2018-09-04T06:57:32.440Z,55.17
2018-09-04T07:00:00.991Z,48.67
2018-09-04T07:02:29.516Z,43.80
2018-09-04T07:04:58.001Z,47.40
2018-09-04T07:07:26.519Z,48.70
2018-09-04T07:09:55.019Z,43.93
2018-09-04T07:12:23.575Z,46.83
2018-09-04T07:14:52.103Z,48.90
2018-09-04T07:17:21.097Z,49.83
2018-09-04T07:19:49.572Z,50.27
2018-09-04T07:22:19.058Z,47.77
2018-09-04T07:24:47.574Z,47.70
2018-09-04T07:27:16.195Z,40.07
2018-09-04T07:29:44.773Z,52.30
2018-09-04T07:32:13.782Z,44.10
2018-09-04T07:34:42.713Z,46.07
2018-09-04T07:37:11.737Z,48.00
2018-09-04T07:39:40.263Z,46.20
2018-09-04T07:42:08.795Z,49.53
2018-09-04T07:44:37.350Z,42.93
2018-09-04T07:47:06.555Z,39.77
2018-09-04T07:49:35.571Z,48.90
2018-09-04T07:52:04.156Z,39.37
2018-09-04T07:54:32.674Z,41.23
2018-09-04T07:57:01.259Z,39.80
2018-09-04T07:59:29.800Z,39.37
2018-09-04T08:01:58.331Z,39.87
2018-09-04T08:04:26.858Z,45.87
2018-09-04T08:06:55.389Z,43.07
2018-09-04T08:09:25.011Z,39.73
2018-09-04T08:11:53.512Z,42.13
2018-09-04T08:14:22.091Z,42.33
2018-09-04T08:16:50.620Z,43.63
2018-09-04T08:19:19.143Z,44.47
2018-09-04T08:21:47.615Z,47.30
2018-09-04T08:24:16.134Z,45.03
2018-09-04T08:26:44.636Z,41.67
2018-09-04T08:29:13.191Z,48.53
2018-09-04T08:31:41.722Z,44.93
2018-09-04T08:34:10.280Z,47.53
2018-09-04T08:36:38.769Z,43.47
2018-09-04T08:39:08.655Z,44.77
2018-09-04T08:41:37.168Z,41.37
2018-09-04T08:44:06.048Z,46.17
2018-09-04T08:46:34.815Z,43.90
2018-09-04T08:49:03.671Z,43.00
2018-09-04T08:51:32.194Z,42.50
2018-09-04T08:54:00.743Z,50.33
2018-09-04T08:56:29.471Z,43.80
2018-09-04T08:58:58.012Z,49.30
2018-09-04T09:01:26.500Z,56.80
2018-09-04T09:03:55.242Z,46.83
2018-09-04T09:06:23.610Z,44.90
2018-09-04T09:08:52.166Z,46.17
2018-09-04T09:11:20.648Z,50.10
2018-09-04T09:13:49.198Z,45.13
2018-09-04T09:16:17.681Z,43.07
2018-09-04T09:18:46.195Z,49.70
2018-09-04T09:21:14.710Z,45.17
2018-09-04T09:23:44.308Z,42.50
2018-09-04T09:26:12.810Z,39.70
2018-09-04T09:28:41.313Z,45.03
2018-09-04T09:31:10.021Z,44.70
2018-09-04T09:33:39.008Z,43.73
2018-09-04T09:36:07.568Z,41.43
2018-09-04T09:38:36.101Z,41.73
2018-09-04T09:41:04.792Z,44.30
2018-09-04T09:43:33.389Z,45.10
2018-09-04T09:46:02.111Z,41.27
2018-09-04T09:48:36.271Z,41.30
2018-09-04T09:51:05.337Z,41.50
2018-09-04T09:53:34.147Z,44.10
2018-09-04T09:56:03.414Z,44.57
2018-09-04T09:58:32.044Z,52.93
2018-09-04T10:01:06.714Z,41.97
2018-09-04T10:03:40.354Z,49.70
2018-09-04T10:06:08.888Z,44.10
2018-09-04T10:08:37.498Z,37.67
2018-09-04T10:11:06.694Z,43.67
2018-09-04T10:13:35.305Z,40.53
2018-09-04T10:16:04.069Z,49.73
2018-09-04T10:18:33.850Z,52.23
2018-09-04T10:21:02.415Z,38.23
2018-09-04T10:23:31.409Z,36.70
2018-09-04T10:25:59.961Z,44.63
2018-09-04T10:28:28.589Z,37.30
2018-09-04T10:30:57.108Z,38.00
2018-09-04T10:33:25.667Z,42.20
2018-09-04T10:35:54.220Z,40.23
2018-09-04T10:38:26.183Z,39.77
2018-09-04T10:41:00.288Z,40.57
2018-09-04T10:43:30.107Z,33.47
2018-09-04T10:46:01.594Z,34.43
2018-09-04T10:48:31.098Z,36.70
2018-09-04T10:51:01.473Z,37.87
2018-09-04T10:53:30.121Z,31.07
2018-09-04T10:55:58.739Z,32.13
2018-09-04T10:58:27.317Z,25.40
2018-09-04T11:00:55.998Z,35.73
2018-09-04T11:03:24.883Z,33.50
2018-09-04T11:05:53.515Z,36.87
2018-09-04T11:08:22.048Z,34.10
2018-09-04T11:10:51.077Z,33.73
2018-09-04T11:13:20.369Z,33.27
2018-09-04T11:15:51.298Z,30.17
2018-09-04T11:18:19.821Z,27.73
2018-09-04T11:20:48.387Z,34.37
2018-09-04T11:23:16.996Z,30.00
2018-09-04T11:25:45.543Z,28.70
2018-09-04T11:28:14.119Z,24.13
2018-09-04T11:30:42.670Z,27.00
2018-09-04T11:33:11.219Z,23.80
2018-09-04T11:35:39.720Z,26.57
2018-09-04T11:38:08.261Z,25.80
2018-09-04T11:40:36.906Z,25.00
2018-09-04T11:43:05.898Z,21.20
2018-09-04T11:45:34.546Z,23.07
2018-09-04T11:48:03.143Z,23.63
2018-09-04T11:50:31.835Z,22.47
2018-09-04T11:53:01.846Z,21.93
2018-09-04T11:55:31.369Z,21.67
2018-09-04T11:58:00.873Z,26.87
2018-09-04T12:00:35.129Z,22.60
2018-09-04T12:03:04.093Z,20.80
2018-09-04T12:05:34.037Z,19.33
2018-09-04T12:08:02.712Z,21.30
2018-09-04T12:10:31.234Z,25.47
2018-09-04T12:21:48.750Z,26.80
2018-09-04T12:24:17.303Z,32.23
2018-09-04T12:26:45.785Z,24.60
2018-09-04T12:29:15.311Z,24.40
2018-09-04T12:31:43.879Z,26.17
2018-09-04T12:34:12.692Z,25.80
2018-09-04T12:36:41.332Z,25.70
2018-09-04T12:39:09.967Z,17.77
2018-09-04T12:41:40.421Z,27.17
2018-09-04T12:44:08.996Z,20.93
2018-09-04T12:46:37.783Z,19.33
2018-09-04T12:49:06.338Z,33.97
2018-09-04T12:51:36.345Z,32.23
2018-09-04T12:54:05.980Z,21.70
2018-09-04T12:56:34.660Z,23.10
2018-09-04T12:59:03.215Z,23.23
2018-09-04T13:01:33.932Z,21.43
2018-09-04T13:04:02.487Z,23.80
2018-09-04T13:06:30.988Z,21.20
2018-09-04T13:09:00.949Z,22.83
2018-09-04T13:11:31.450Z,18.87
2018-09-04T13:14:00.469Z,20.37
2018-09-04T13:16:29.956Z,22.67
2018-09-04T13:18:58.569Z,20.20
2018-09-04T13:21:28.038Z,15.97
2018-09-04T13:23:56.608Z,21.13
2018-09-04T13:26:26.004Z,18.03
2018-09-04T13:28:54.563Z,17.07
2018-09-04T13:31:26.289Z,17.17
2018-09-04T13:33:56.444Z,20.13
2018-09-04T13:36:25.316Z,18.00
2018-09-04T13:38:54.832Z,22.20
2018-09-04T13:41:23.503Z,19.60
2018-09-04T13:43:52.290Z,18.53
2018-09-04T13:46:21.597Z,16.60
2018-09-04T13:48:50.382Z,20.73
2018-09-04T13:51:18.915Z,19.30
2018-09-04T13:53:48.467Z,19.57
2018-09-04T13:56:17.358Z,19.43
2018-09-04T13:58:45.903Z,19.77
2018-09-04T14:01:14.440Z,23.07
2018-09-04T14:03:42.974Z,18.27
2018-09-04T14:06:11.529Z,16.20
2018-09-04T14:08:40.196Z,17.40
2018-09-04T14:11:08.696Z,15.93
2018-09-04T14:13:37.222Z,24.00
2018-09-04T14:16:07.934Z,32.97
2018-09-04T14:18:36.461Z,18.33
2018-09-04T14:21:06.230Z,17.87
2018-09-04T14:23:34.730Z,16.07
2018-09-04T14:26:03.335Z,18.93
2018-09-04T14:29:06.417Z,16.80
2018-09-04T14:31:00.433Z,15.77
2018-09-04T14:33:29.415Z,13.03
2018-09-04T14:35:58.081Z,19.73
2018-09-04T14:38:26.663Z,15.27
2018-09-04T14:40:55.154Z,24.10
2018-09-04T14:43:23.766Z,17.13
2018-09-04T14:45:52.278Z,30.80
2018-09-04T14:48:20.856Z,24.60
2018-09-04T14:50:49.399Z,17.93
2018-09-04T14:53:18.978Z,16.40
2018-09-04T14:55:47.507Z,17.50
2018-09-04T14:58:16.108Z,13.90
2018-09-04T15:00:44.639Z,24.53
2018-09-04T15:03:13.216Z,28.53
2018-09-04T15:05:41.756Z,17.97
2018-09-04T15:08:10.380Z,16.63
2018-09-04T15:10:38.873Z,23.27
2018-09-04T15:13:07.993Z,17.80
2018-09-04T15:15:36.712Z,15.07
2018-09-04T15:18:05.552Z,22.03
2018-09-04T15:20:34.062Z,17.40
2018-09-04T15:23:02.891Z,20.80
2018-09-04T15:25:31.421Z,20.27
2018-09-04T15:28:00.072Z,16.60
2018-09-04T15:30:28.559Z,14.90
2018-09-04T15:32:57.495Z,13.90
2018-09-04T15:35:26.131Z,16.93
2018-09-04T15:37:54.816Z,16.00
2018-09-04T15:40:23.300Z,17.30
2018-09-04T15:42:51.944Z,15.70
2018-09-04T15:45:20.943Z,19.27
2018-09-04T15:47:49.511Z,16.30
2018-09-04T15:50:18.011Z,17.47
2018-09-04T15:53:15.875Z,15.43
2018-09-04T15:55:45.004Z,19.03
2018-09-04T15:58:13.539Z,16.40
2018-09-04T16:00:42.046Z,14.13
2018-09-04T16:03:10.571Z,18.10
2018-09-04T16:05:39.133Z,16.47
2018-09-04T16:08:07.923Z,21.03
2018-09-04T16:10:36.631Z,22.47
2018-09-04T16:13:05.183Z,24.43
2018-09-04T16:15:34.151Z,22.80
2018-09-04T16:18:02.671Z,16.60
2018-09-04T16:20:31.202Z,21.03
2018-09-04T16:22:59.691Z,22.70
2018-09-04T16:25:28.814Z,19.30
2018-09-04T16:27:57.335Z,17.43
2018-09-04T16:30:25.881Z,19.43
2018-09-04T16:32:54.625Z,20.17
2018-09-04T16:35:23.127Z,24.30
2018-09-04T16:37:51.803Z,20.63
2018-09-04T16:40:20.911Z,18.80
2018-09-04T16:42:49.465Z,18.17
2018-09-04T16:45:17.986Z,16.37
2018-09-04T16:47:46.552Z,26.10
2018-09-04T16:50:15.275Z,20.03
2018-09-04T16:52:43.877Z,19.80
2018-09-04T16:55:13.494Z,17.50
2018-09-04T16:57:42.051Z,16.77
2018-09-04T17:00:10.571Z,30.47
2018-09-04T17:02:39.151Z,16.67
2018-09-04T17:05:08.253Z,22.87
2018-09-04T17:07:37.642Z,19.00
2018-09-04T17:10:06.171Z,19.37
2018-09-04T17:12:34.763Z,18.67
2018-09-04T17:15:03.289Z,17.30
2018-09-04T17:17:32.134Z,19.63
2018-09-04T17:20:01.167Z,20.90
2018-09-04T17:22:29.675Z,21.07
2018-09-04T17:24:58.175Z,17.77
2018-09-04T17:27:27.308Z,16.80
2018-09-04T17:29:55.805Z,17.10
2018-09-04T17:32:24.295Z,24.67
2018-09-04T17:34:52.875Z,18.40
2018-09-04T17:37:21.861Z,22.07
2018-09-04T17:39:50.654Z,17.73
2018-09-04T17:42:19.158Z,18.57
2018-09-04T17:44:47.739Z,23.40
2018-09-04T17:47:16.466Z,22.67
2018-09-04T17:49:45.499Z,17.70
2018-09-04T17:52:14.039Z,18.20
2018-09-04T17:54:42.596Z,23.27
2018-09-04T17:57:11.747Z,23.27
2018-09-04T17:59:40.292Z,17.30
2018-09-04T18:02:09.976Z,37.87
2018-09-04T18:04:38.622Z,16.63
2018-09-04T18:07:07.153Z,19.37
2018-09-04T18:09:36.480Z,17.67
2018-09-04T18:12:05.801Z,22.07
2018-09-04T18:14:34.404Z,20.77
2018-09-04T18:17:02.922Z,22.20
2018-09-04T18:19:31.549Z,20.57
2018-09-04T18:22:00.203Z,19.13
2018-09-04T18:24:28.804Z,19.97
2018-09-04T18:26:57.423Z,23.60
2018-09-04T18:29:26.108Z,19.33
2018-09-04T18:31:54.837Z,18.40
2018-09-04T18:34:23.652Z,17.33
2018-09-04T18:36:52.753Z,17.07
2018-09-04T18:39:21.739Z,21.20
2018-09-04T18:41:50.412Z,23.50
2018-09-04T18:44:18.990Z,21.27
2018-09-04T18:46:48.440Z,26.00
2018-09-04T18:49:17.061Z,22.30
2018-09-04T18:51:46.352Z,20.53
2018-09-04T18:54:14.923Z,19.30
2018-09-04T18:56:43.602Z,19.70
2018-09-04T18:59:12.635Z,20.73
2018-09-04T19:01:41.199Z,24.87
2018-09-04T19:04:09.983Z,21.40
2018-09-04T19:06:38.599Z,27.33
2018-09-04T19:09:08.059Z,21.20
2018-09-04T19:11:37.774Z,24.00
2018-09-04T19:14:08.205Z,28.70
2018-09-04T19:16:37.822Z,21.97
2018-09-04T19:19:06.418Z,25.70
2018-09-04T19:21:35.012Z,20.93
2018-09-04T19:24:03.652Z,26.70
2018-09-04T19:26:33.088Z,18.30
2018-09-04T19:29:02.233Z,20.00
2018-09-04T19:31:30.751Z,25.90
2018-09-04T19:33:59.589Z,28.97
2018-09-04T19:36:29.118Z,21.53
2018-09-04T19:38:57.973Z,21.27
2018-09-04T19:41:26.547Z,28.33
2018-09-04T19:43:55.059Z,23.43
2018-09-04T19:46:24.213Z,27.63
2018-09-04T19:48:52.738Z,22.90
2018-09-04T19:51:21.315Z,21.30
2018-09-04T19:53:49.833Z,20.50
2018-09-04T19:56:18.611Z,30.33
2018-09-04T19:58:47.132Z,29.67
2018-09-04T20:01:16.046Z,22.80
2018-09-04T20:03:44.620Z,22.63
2018-09-04T20:06:13.646Z,21.40
2018-09-04T20:08:42.170Z,19.27
2018-09-04T20:11:10.773Z,17.13
2018-09-04T20:13:39.408Z,19.47
2018-09-04T20:16:08.651Z,20.07
2018-09-04T20:18:37.233Z,23.60
2018-09-04T20:21:05.871Z,25.33
2018-09-04T20:23:35.158Z,20.63
2018-09-04T20:26:03.750Z,20.87
2018-09-04T20:28:32.302Z,22.90
2018-09-04T20:31:01.230Z,35.07
2018-09-04T20:33:29.840Z,18.53
2018-09-04T20:35:58.528Z,26.23
2018-09-04T20:38:27.010Z,17.80
2018-09-04T20:40:55.842Z,18.10
2018-09-04T20:43:24.418Z,13.18
2018-09-04T20:45:52.969Z,16.40
2018-09-04T20:48:21.790Z,14.70
2018-09-04T20:50:50.832Z,13.83
2018-09-04T20:53:19.371Z,10.90
2018-09-04T20:55:48.153Z,17.20
2018-09-04T20:58:27.735Z,13.63
2018-09-04T21:01:07.419Z,12.10
2018-09-04T21:03:47.819Z,15.30
2018-09-04T21:06:27.551Z,13.40
2018-09-04T21:09:05.315Z,11.27
2018-09-04T21:11:33.924Z,12.30
2018-09-04T21:14:04.219Z,14.90
2018-09-04T21:16:32.809Z,12.07
2018-09-04T21:19:01.362Z,14.17
2018-09-04T21:21:30.234Z,13.93
2018-09-04T21:23:58.928Z,12.30
2018-09-04T21:26:28.547Z,16.17
2018-09-04T21:28:58.054Z,22.40
2018-09-04T21:31:27.249Z,15.43
2018-09-04T21:33:56.115Z,20.80
2018-09-04T21:36:24.686Z,15.40
2018-09-04T21:38:53.254Z,14.43
2018-09-04T21:41:21.823Z,20.43
2018-09-04T21:43:51.280Z,12.90
2018-09-04T21:46:19.854Z,21.43
2018-09-04T21:48:48.387Z,18.30
2018-09-04T21:51:17.656Z,15.27
2018-09-04T21:53:47.091Z,14.87
2018-09-04T21:56:16.397Z,12.57
2018-09-04T21:58:45.154Z,17.13
2018-09-04T22:01:13.698Z,11.40
2018-09-04T22:03:43.371Z,10.97
2018-09-04T22:06:11.898Z,13.70
2018-09-04T22:08:40.391Z,11.60
2018-09-04T22:11:08.953Z,18.30
2018-09-04T22:13:37.630Z,16.33
2018-09-04T22:16:06.473Z,18.03
2018-09-04T22:18:35.056Z,14.00
2018-09-04T22:21:03.607Z,13.77
2018-09-04T22:23:32.166Z,15.80
2018-09-04T22:26:00.699Z,17.30
2018-09-04T22:28:29.199Z,18.90
2018-09-04T22:30:57.718Z,15.80
2018-09-04T22:33:26.449Z,15.63
2018-09-04T22:35:54.990Z,12.67
2018-09-04T22:38:23.462Z,14.57
2018-09-04T22:40:52.003Z,15.87
2018-09-04T22:43:20.502Z,14.73
2018-09-04T22:45:49.046Z,15.57
2018-09-04T22:48:17.547Z,16.10
2018-09-04T22:50:51.386Z,14.63
2018-09-04T22:53:19.890Z,15.03
2018-09-04T22:55:48.971Z,16.13
2018-09-04T22:58:17.704Z,14.70
2018-09-04T23:00:46.212Z,14.13
2018-09-04T23:03:14.755Z,17.90
2018-09-04T23:05:43.258Z,14.90
2018-09-04T23:08:12.039Z,16.00
2018-09-04T23:10:40.529Z,16.00
2018-09-04T23:13:10.460Z,15.33
2018-09-04T23:15:42.838Z,13.17
2018-09-04T23:18:12.413Z,12.50
2018-09-04T23:20:40.976Z,14.23
2018-09-04T23:23:10.186Z,12.27
2018-09-04T23:25:38.914Z,15.60
2018-09-04T23:28:08.262Z,15.97
2018-09-04T23:30:36.803Z,16.20
2018-09-04T23:33:05.859Z,13.17
2018-09-04T23:35:34.430Z,12.67
2018-09-04T23:38:02.918Z,12.30
2018-09-04T23:40:31.490Z,14.03
2018-09-04T23:43:00.063Z,13.63
2018-09-04T23:45:28.558Z,14.40
2018-09-04T23:47:57.094Z,11.97
2018-09-04T23:50:25.655Z,11.10
2018-09-04T23:52:54.136Z,12.73
2018-09-04T23:55:22.718Z,16.83
2018-09-04T23:57:52.088Z,13.90
